createdAt,value
2023-04-30T00:05:01.154Z,60.97
2023-04-30T00:10:05.657Z,61.81
2023-04-30T00:15:09.853Z,60.21
2023-04-30T00:20:14.535Z,60.40
2023-04-30T00:25:17.746Z,60.60
2023-04-30T00:30:22.017Z,61.78
2023-04-30T00:35:26.077Z,62.65
2023-04-30T00:40:30.408Z,63.20
2023-04-30T00:45:34.168Z,63.17
2023-04-30T00:50:38.736Z,62.54
2023-04-30T00:55:42.846Z,62.96
2023-04-30T01:00:47.677Z,62.76
2023-04-30T01:05:54.419Z,62.67
2023-04-30T01:11:36.966Z,63.84
2023-04-30T01:17:32.424Z,64.72
2023-04-30T01:22:46.642Z,65.91
2023-04-30T01:27:56.916Z,66.35
2023-04-30T01:33:02.453Z,65.91
2023-04-30T01:38:35.694Z,66.72
2023-04-30T01:44:01.545Z,67.24
2023-04-30T01:49:17.709Z,66.35
2023-04-30T01:54:31.710Z,65.71
2023-04-30T01:59:39.386Z,65.29
2023-04-30T02:04:43.285Z,65.82
2023-04-30T02:09:46.773Z,66.32
2023-04-30T02:14:50.043Z,66.66
2023-04-30T02:19:54.465Z,66.11
2023-04-30T02:24:59.280Z,65.31
2023-04-30T02:30:03.204Z,63.19
2023-04-30T02:35:07.909Z,61.32
2023-04-30T02:40:12.318Z,62.35
2023-04-30T02:45:16.014Z,62.99
2023-04-30T02:50:19.856Z,59.66
2023-04-30T02:55:23.762Z,57.77
2023-04-30T03:00:27.221Z,55.80
2023-04-30T03:05:30.872Z,52.33
2023-04-30T03:10:34.966Z,46.75
2023-04-30T03:15:38.888Z,47.26
2023-04-30T03:20:42.694Z,49.66
2023-04-30T03:25:46.926Z,50.37
2023-04-30T03:30:51.423Z,52.35
2023-04-30T03:35:55.433Z,52.27
2023-04-30T03:40:59.042Z,53.12
2023-04-30T03:46:02.519Z,54.01
2023-04-30T03:51:06.031Z,56.83
2023-04-30T03:56:09.893Z,54.07
2023-04-30T04:01:14.261Z,54.54
2023-04-30T04:06:18.244Z,54.62
2023-04-30T04:11:23.197Z,54.51
2023-04-30T04:16:27.383Z,55.78
2023-04-30T04:21:32.105Z,56.54
2023-04-30T04:26:38.296Z,56.90
2023-04-30T04:31:43.021Z,57.74
2023-04-30T04:36:48.015Z,58.15
2023-04-30T04:41:51.845Z,58.08
2023-04-30T04:46:56.972Z,59.33
2023-04-30T04:52:00.156Z,60.27
2023-04-30T04:57:03.744Z,60.71
2023-04-30T05:02:07.312Z,60.95
2023-04-30T05:07:11.110Z,62.99
2023-04-30T05:12:15.734Z,62.50
2023-04-30T05:17:19.208Z,62.37
2023-04-30T05:22:22.610Z,61.47
2023-04-30T05:27:27.753Z,64.46
2023-04-30T05:32:31.424Z,74.72
2023-04-30T05:37:35.434Z,76.05
2023-04-30T05:42:41.083Z,77.85
2023-04-30T05:47:45.808Z,77.02
2023-04-30T05:52:50.095Z,75.47
2023-04-30T05:57:53.959Z,75.66
2023-04-30T06:02:58.053Z,67.47
2023-04-30T06:08:01.584Z,64.63
2023-04-30T06:13:05.425Z,65.84
2023-04-30T06:18:14.555Z,58.96
2023-04-30T06:23:18.571Z,56.38
2023-04-30T06:28:22.243Z,54.64
2023-04-30T06:33:25.711Z,49.36
2023-04-30T06:38:30.376Z,47.18
2023-04-30T06:43:34.090Z,48.10
2023-04-30T06:48:37.830Z,49.62
2023-04-30T06:53:41.854Z,47.43
2023-04-30T06:58:45.435Z,47.75
2023-04-30T07:03:48.695Z,45.05
2023-04-30T07:08:52.043Z,44.58
2023-04-30T07:13:55.581Z,45.20
2023-04-30T07:19:00.464Z,45.67
2023-04-30T07:24:03.659Z,46.87
2023-04-30T07:29:07.120Z,48.32
2023-04-30T07:34:10.765Z,49.43
2023-04-30T07:39:14.916Z,49.76
2023-04-30T07:44:19.425Z,49.11
2023-04-30T07:49:23.070Z,43.99
2023-04-30T07:54:27.020Z,43.32
2023-04-30T07:59:30.964Z,40.74
2023-04-30T08:04:35.053Z,41.16
2023-04-30T08:09:38.653Z,39.95
2023-04-30T08:14:41.790Z,39.25
2023-04-30T08:19:44.999Z,36.31
2023-04-30T08:24:48.791Z,36.45
2023-04-30T08:29:52.571Z,36.04
2023-04-30T08:34:56.807Z,39.58
2023-04-30T08:40:01.331Z,41.72
2023-04-30T08:45:05.508Z,42.61
2023-04-30T08:50:10.556Z,41.12
2023-04-30T08:55:13.739Z,39.99
2023-04-30T09:00:17.680Z,40.67
2023-04-30T09:05:20.931Z,42.98
2023-04-30T09:10:25.386Z,46.45
2023-04-30T09:15:30.883Z,46.87
2023-04-30T09:20:35.350Z,46.47
2023-04-30T09:25:43.164Z,48.20
2023-04-30T09:30:47.248Z,48.48
2023-04-30T09:35:51.171Z,47.71
2023-04-30T09:40:55.448Z,46.20
2023-04-30T09:46:00.508Z,45.07
2023-04-30T09:51:04.695Z,48.38
2023-04-30T09:56:09.093Z,49.84
2023-04-30T10:01:13.033Z,50.68
2023-04-30T10:06:19.010Z,52.18
2023-04-30T10:11:24.164Z,50.31
2023-04-30T10:16:31.148Z,57.67
2023-04-30T10:21:36.184Z,59.00
2023-04-30T10:26:40.811Z,59.93
2023-04-30T10:31:48.322Z,63.18
2023-04-30T10:37:06.110Z,67.12
2023-04-30T10:42:12.038Z,75.14
2023-04-30T10:47:20.138Z,77.04
2023-04-30T10:52:30.882Z,80.29
2023-04-30T10:57:44.286Z,82.91
2023-04-30T11:02:49.062Z,84.13
2023-04-30T11:07:58.476Z,85.69
2023-04-30T11:13:07.032Z,88.26
2023-04-30T11:18:11.178Z,87.78
2023-04-30T11:23:25.214Z,89.88
2023-04-30T11:28:38.055Z,92.60
2023-04-30T11:33:41.869Z,92.87
2023-04-30T11:38:46.518Z,94.66
2023-04-30T11:43:50.012Z,95.11
2023-04-30T11:48:53.622Z,96.35
2023-04-30T11:53:57.675Z,96.26
2023-04-30T11:59:01.417Z,97.69
2023-04-30T12:04:05.965Z,97.71
2023-04-30T12:09:10.076Z,98.79
2023-04-30T12:14:15.157Z,99.97
2023-04-30T12:19:20.515Z,99.38
2023-04-30T12:24:28.228Z,99.97
2023-04-30T12:29:31.504Z,100.00
2023-04-30T12:34:35.239Z,100.00
2023-04-30T12:39:39.063Z,100.00
2023-04-30T12:44:45.271Z,100.00
2023-04-30T12:49:50.539Z,100.00
2023-04-30T12:54:55.355Z,100.00
2023-04-30T13:00:00.585Z,100.00
2023-04-30T13:05:04.392Z,100.00
2023-04-30T13:10:08.561Z,100.00
2023-04-30T13:15:12.445Z,100.00
2023-04-30T13:20:16.498Z,89.77
2023-04-30T13:25:21.202Z,85.64
2023-04-30T13:30:25.422Z,92.97
2023-04-30T13:35:29.521Z,95.42
2023-04-30T13:40:34.919Z,91.31
2023-04-30T13:45:39.086Z,90.63
2023-04-30T13:50:42.322Z,90.80
2023-04-30T13:55:45.880Z,92.52
2023-04-30T14:00:49.724Z,92.68
2023-04-30T14:05:55.145Z,95.40
2023-04-30T14:10:59.067Z,94.99
2023-04-30T14:16:03.548Z,94.06
2023-04-30T14:21:08.300Z,94.61
2023-04-30T14:26:15.049Z,88.27
2023-04-30T14:31:18.735Z,88.08
2023-04-30T14:36:22.748Z,87.93
2023-04-30T14:41:27.565Z,91.71
2023-04-30T14:46:32.009Z,89.88
2023-04-30T14:51:37.000Z,94.44
2023-04-30T14:56:41.939Z,93.51
2023-04-30T15:01:46.744Z,95.45
2023-04-30T15:06:51.717Z,96.69
2023-04-30T15:11:56.496Z,98.96
2023-04-30T15:16:59.658Z,100.00
2023-04-30T15:22:03.720Z,99.75
2023-04-30T15:27:07.592Z,100.00
2023-04-30T15:32:11.080Z,100.00
2023-04-30T15:37:14.162Z,100.00
2023-04-30T15:42:17.996Z,100.00
2023-04-30T15:47:23.901Z,100.00
2023-04-30T15:52:27.708Z,100.00
2023-04-30T15:57:31.885Z,100.00
2023-04-30T16:02:36.035Z,100.00
2023-04-30T16:07:43.928Z,100.00
2023-04-30T16:12:48.687Z,100.00
2023-04-30T16:17:53.349Z,100.00
2023-04-30T16:22:58.070Z,100.00
2023-04-30T16:28:02.117Z,100.00
2023-04-30T16:33:06.543Z,100.00
2023-04-30T16:38:10.200Z,100.00
2023-04-30T16:43:15.383Z,100.00
2023-04-30T16:48:18.899Z,100.00
2023-04-30T16:53:23.040Z,100.00
2023-04-30T16:58:26.617Z,100.00
2023-04-30T17:03:31.392Z,100.00
2023-04-30T17:08:35.051Z,100.00
2023-04-30T17:13:39.060Z,100.00
2023-04-30T17:18:42.901Z,100.00
2023-04-30T17:23:46.656Z,100.00
2023-04-30T17:28:50.786Z,100.00
2023-04-30T17:33:55.591Z,100.00
2023-04-30T17:38:59.715Z,100.00
2023-04-30T17:44:04.046Z,100.00
2023-04-30T17:49:08.376Z,100.00
2023-04-30T17:54:12.591Z,100.00
2023-04-30T17:59:16.268Z,100.00
2023-04-30T18:04:20.418Z,100.00
2023-04-30T18:09:24.219Z,100.00
2023-04-30T18:14:27.616Z,100.00
2023-04-30T18:19:32.852Z,100.00
2023-04-30T18:24:36.736Z,100.00
2023-04-30T18:29:40.207Z,100.00
2023-04-30T18:34:44.000Z,100.00
2023-04-30T18:39:47.665Z,100.00
2023-04-30T18:44:51.576Z,100.00
2023-04-30T18:49:55.916Z,100.00
2023-04-30T18:54:59.732Z,100.00
2023-04-30T19:00:02.910Z,100.00
2023-04-30T19:05:07.029Z,100.00
2023-04-30T19:10:11.105Z,100.00
2023-04-30T19:15:15.450Z,100.00
2023-04-30T19:20:18.570Z,100.00
2023-04-30T19:25:23.748Z,100.00
2023-04-30T19:33:17.501Z,100.00
2023-04-30T19:38:22.623Z,100.00
2023-04-30T19:43:26.905Z,100.00
2023-04-30T19:48:31.804Z,100.00
2023-04-30T19:53:35.826Z,100.00
2023-04-30T19:58:40.215Z,100.00
2023-04-30T20:03:45.048Z,100.00
2023-04-30T20:08:49.157Z,100.00
2023-04-30T20:13:56.628Z,100.00
2023-04-30T20:18:59.852Z,100.00
2023-04-30T20:24:04.641Z,100.00
2023-04-30T20:29:08.688Z,100.00
2023-04-30T20:34:13.459Z,100.00
2023-04-30T20:39:18.119Z,100.00
2023-04-30T20:44:21.519Z,100.00
2023-04-30T20:49:27.475Z,100.00
2023-04-30T20:54:31.231Z,100.00
2023-04-30T20:59:36.909Z,100.00
2023-04-30T21:04:41.088Z,100.00
2023-04-30T21:09:44.924Z,100.00
2023-04-30T21:14:48.155Z,100.00
2023-04-30T21:19:52.153Z,100.00
2023-04-30T21:24:56.019Z,100.00
2023-04-30T21:29:59.243Z,100.00
2023-04-30T21:35:02.839Z,100.00
2023-04-30T21:40:07.042Z,100.00
2023-04-30T21:45:10.986Z,100.00
2023-04-30T21:50:15.029Z,100.00
2023-04-30T21:55:18.558Z,100.00
2023-04-30T22:00:23.042Z,100.00
2023-04-30T22:05:26.507Z,100.00
2023-04-30T22:10:31.943Z,100.00
2023-04-30T22:15:47.096Z,100.00
2023-04-30T22:20:52.571Z,100.00
2023-04-30T22:25:56.426Z,100.00
2023-04-30T22:31:03.153Z,100.00
2023-04-30T22:36:07.513Z,100.00
2023-04-30T22:41:11.698Z,100.00
2023-04-30T22:46:15.714Z,100.00
2023-04-30T22:51:19.754Z,100.00
2023-04-30T22:56:23.573Z,100.00
2023-04-30T23:01:28.387Z,100.00
2023-04-30T23:06:33.159Z,100.00
2023-04-30T23:11:37.434Z,100.00
2023-04-30T23:33:36.803Z,100.00
2023-04-30T23:38:40.222Z,100.00
2023-04-30T23:43:43.936Z,100.00
2023-04-30T23:48:48.068Z,100.00
2023-04-30T23:53:52.092Z,100.00
2023-04-30T23:58:56.085Z,100.00
